createdAt,value
2023-04-22T00:01:17.370Z,98619.84
2023-04-22T00:03:45.005Z,98618.41
2023-04-22T00:06:12.212Z,98618.84
2023-04-22T00:08:38.951Z,98618.84
2023-04-22T00:11:06.670Z,98617.13
2023-04-22T00:13:33.546Z,98610.84
2023-04-22T00:16:00.716Z,98614.41
2023-04-22T00:18:27.568Z,98618.50
2023-04-22T00:20:54.648Z,98623.34
2023-04-22T00:23:21.417Z,98615.66
2023-04-22T00:25:48.498Z,98613.06
2023-04-22T00:28:15.284Z,98614.94
2023-04-22T00:30:42.367Z,98615.22
2023-04-22T00:33:09.173Z,98614.63
2023-04-22T00:35:36.361Z,98609.63
2023-04-22T00:38:03.114Z,98608.06
2023-04-22T00:40:30.238Z,98608.34
2023-04-22T00:42:56.968Z,98609.75
2023-04-22T00:45:23.980Z,98609.03
2023-04-22T00:47:51.033Z,98609.63
2023-04-22T00:50:18.162Z,98601.91
2023-04-22T00:52:44.941Z,98605.16
2023-04-22T00:55:12.052Z,98610.22
2023-04-22T00:57:38.767Z,98608.81
2023-04-22T01:00:09.888Z,98617.91
2023-04-22T01:02:38.502Z,98609.78
2023-04-22T01:05:06.364Z,98612.19
2023-04-22T01:07:33.252Z,98608.63
2023-04-22T01:10:00.682Z,98610.75
2023-04-22T01:12:27.493Z,98619.72
2023-04-22T01:14:54.498Z,98606.97
2023-04-22T01:17:22.069Z,98620.38
2023-04-22T01:19:49.328Z,98616.50
2023-04-22T01:22:16.105Z,98616.50
2023-04-22T01:24:43.146Z,98616.03
2023-04-22T01:27:09.911Z,98619.00
2023-04-22T01:29:38.176Z,98616.84
2023-04-22T01:32:05.634Z,98623.38
2023-04-22T01:34:32.850Z,98618.75
2023-04-22T01:36:59.622Z,98623.44
2023-04-22T01:39:26.826Z,98615.47
2023-04-22T01:41:53.812Z,98620.41
2023-04-22T01:44:20.879Z,98630.38
2023-04-22T01:46:47.674Z,98632.34
2023-04-22T01:49:14.720Z,98637.47
2023-04-22T01:51:41.559Z,98630.75
2023-04-22T01:54:09.171Z,98629.91
2023-04-22T01:56:36.572Z,98635.84
2023-04-22T01:59:03.698Z,98634.72
2023-04-22T02:01:30.500Z,98634.41
2023-04-22T02:03:57.543Z,98630.09
2023-04-22T02:06:24.329Z,98634.78
2023-04-22T02:08:51.362Z,98637.13
2023-04-22T02:11:18.098Z,98636.28
2023-04-22T02:13:45.184Z,98630.16
2023-04-22T02:16:12.036Z,98635.53
2023-04-22T02:18:39.129Z,98634.09
2023-04-22T02:21:05.931Z,98640.41
2023-04-22T02:23:33.198Z,98633.03
2023-04-22T02:25:59.960Z,98635.41
2023-04-22T02:28:27.136Z,98621.66
2023-04-22T02:30:53.911Z,98620.69
2023-04-22T02:33:21.013Z,98619.84
2023-04-22T02:35:47.843Z,98623.53
2023-04-22T02:38:14.946Z,98618.13
2023-04-22T02:40:41.668Z,98622.03
2023-04-22T02:43:08.801Z,98618.59
2023-04-22T02:45:35.977Z,98616.03
2023-04-22T02:48:03.119Z,98618.72
2023-04-22T02:50:29.922Z,98603.63
2023-04-22T02:52:57.103Z,98613.84
2023-04-22T02:55:24.858Z,98615.59
2023-04-22T02:57:51.894Z,98613.88
2023-04-22T03:00:18.701Z,98616.84
2023-04-22T03:02:45.895Z,98616.09
2023-04-22T03:05:12.839Z,98612.78
2023-04-22T03:07:39.947Z,98617.47
2023-04-22T03:10:07.834Z,98612.31
2023-04-22T03:12:34.924Z,98620.53
2023-04-22T03:15:01.820Z,98623.47
2023-04-22T03:17:28.863Z,98619.81
2023-04-22T03:19:55.901Z,98609.72
2023-04-22T03:22:22.966Z,98614.03
2023-04-22T03:24:49.730Z,98608.06
2023-04-22T03:27:16.776Z,98618.84
2023-04-22T03:29:43.588Z,98615.66
2023-04-22T03:32:11.089Z,98622.03
2023-04-22T03:34:37.884Z,98618.84
2023-04-22T03:37:04.907Z,98620.47
2023-04-22T03:39:31.755Z,98616.91
2023-04-22T03:41:58.816Z,98621.69
2023-04-22T03:44:25.569Z,98620.09
2023-04-22T03:46:52.625Z,98622.44
2023-04-22T03:49:19.872Z,98624.03
2023-04-22T03:51:46.913Z,98621.69
2023-04-22T03:54:13.720Z,98619.34
2023-04-22T03:56:41.126Z,98621.69
2023-04-22T03:59:07.871Z,98622.53
2023-04-22T04:01:36.194Z,98623.78
2023-04-22T04:04:03.104Z,98621.31
2023-04-22T04:06:30.350Z,98622.66
2023-04-22T04:08:57.193Z,98620.97
2023-04-22T04:11:24.253Z,98619.97
2023-04-22T04:13:51.131Z,98614.72
2023-04-22T04:16:18.318Z,98622.66
2023-04-22T04:18:45.092Z,98620.34
2023-04-22T04:21:12.142Z,98618.63
2023-04-22T04:23:38.945Z,98621.69
2023-04-22T04:26:06.008Z,98623.66
2023-04-22T04:28:34.377Z,98624.75
2023-04-22T04:31:02.873Z,98623.03
2023-04-22T04:33:31.897Z,98625.63
2023-04-22T04:35:59.408Z,98626.34
2023-04-22T04:38:26.679Z,98626.47
2023-04-22T04:40:53.874Z,98628.19
2023-04-22T04:43:21.280Z,98629.88
2023-04-22T04:45:49.040Z,98628.81
2023-04-22T04:48:16.698Z,98629.66
2023-04-22T04:50:44.070Z,98622.41
2023-04-22T04:53:11.296Z,98625.09
2023-04-22T04:55:38.672Z,98628.56
2023-04-22T04:58:05.465Z,98622.19
2023-04-22T05:00:32.470Z,98628.56
2023-04-22T05:02:59.314Z,98625.59
2023-04-22T05:05:26.579Z,98631.47
2023-04-22T05:07:53.899Z,98632.97
2023-04-22T05:10:21.513Z,98629.66
2023-04-22T05:12:48.452Z,98630.63
2023-04-22T05:15:15.565Z,98622.66
2023-04-22T05:17:42.403Z,98629.03
2023-04-22T05:20:09.981Z,98628.78
2023-04-22T05:22:37.266Z,98630.16
2023-04-22T05:25:04.785Z,98631.84
2023-04-22T05:27:31.733Z,98640.53
2023-04-22T05:29:58.921Z,98634.66
2023-04-22T05:32:25.825Z,98640.66
2023-04-22T05:34:53.067Z,98637.97
2023-04-22T05:37:20.001Z,98635.63
2023-04-22T05:39:47.113Z,98642.22
2023-04-22T05:42:13.865Z,98639.41
2023-04-22T05:44:41.076Z,98646.88
2023-04-22T05:47:07.879Z,98642.94
2023-04-22T05:49:35.001Z,98643.56
2023-04-22T05:52:01.816Z,98641.94
2023-04-22T05:54:29.463Z,98636.03
2023-04-22T05:56:56.859Z,98641.78
2023-04-22T05:59:24.029Z,98639.56
2023-04-22T06:01:51.163Z,98645.19
2023-04-22T06:04:18.977Z,98638.19
2023-04-22T06:06:45.952Z,98631.28
2023-04-22T06:09:13.025Z,98639.84
2023-04-22T06:11:40.476Z,98640.44
2023-04-22T06:14:07.541Z,98650.00
2023-04-22T06:16:34.362Z,98640.50
2023-04-22T06:19:01.535Z,98648.25
2023-04-22T06:21:28.631Z,98642.03
2023-04-22T06:23:56.282Z,98641.19
2023-04-22T06:26:23.040Z,98640.50
2023-04-22T06:28:50.258Z,98642.56
2023-04-22T06:31:18.817Z,98645.47
2023-04-22T06:33:46.797Z,98644.06
2023-04-22T06:36:13.876Z,98644.25
2023-04-22T06:38:40.933Z,98645.72
2023-04-22T06:41:07.734Z,98649.72
2023-04-22T06:43:34.777Z,98642.75
2023-04-22T06:46:01.550Z,98648.22
2023-04-22T06:48:28.634Z,98648.31
2023-04-22T06:50:55.410Z,98649.72
2023-04-22T06:53:22.499Z,98649.06
2023-04-22T06:55:50.249Z,98651.94
2023-04-22T06:58:17.357Z,98647.53
2023-04-22T07:00:44.253Z,98651.13
2023-04-22T07:03:11.656Z,98637.06
2023-04-22T07:05:39.774Z,98642.63
2023-04-22T07:08:06.996Z,98646.47
2023-04-22T07:10:33.832Z,98646.50
2023-04-22T07:13:01.010Z,98650.06
2023-04-22T07:15:27.807Z,98646.81
2023-04-22T07:17:55.063Z,98648.22
2023-04-22T07:20:23.141Z,98650.81
2023-04-22T07:22:51.228Z,98656.13
2023-04-22T07:25:18.087Z,98650.38
2023-04-22T07:27:45.309Z,98646.81
2023-04-22T07:30:13.513Z,98650.22
2023-04-22T07:32:40.717Z,98648.88
2023-04-22T07:35:08.008Z,98644.00
2023-04-22T07:37:35.080Z,98652.72
2023-04-22T07:40:02.052Z,98646.41
2023-04-22T07:42:29.179Z,98650.66
2023-04-22T07:44:55.959Z,98650.50
2023-04-22T07:47:23.245Z,98652.88
2023-04-22T07:49:50.058Z,98650.44
2023-04-22T07:52:17.130Z,98651.41
2023-04-22T07:54:43.898Z,98650.38
2023-04-22T07:57:11.050Z,98646.72
2023-04-22T07:59:38.003Z,98656.69
2023-04-22T08:02:05.198Z,98648.59
2023-04-22T08:04:32.102Z,98646.84
2023-04-22T08:06:59.717Z,98643.34
2023-04-22T08:09:27.461Z,98641.59
2023-04-22T08:11:54.570Z,98646.91
2023-04-22T08:14:21.537Z,98637.53
2023-04-22T08:16:48.608Z,98640.34
2023-04-22T08:19:15.355Z,98632.59
2023-04-22T08:21:42.820Z,98631.78
2023-04-22T08:24:09.544Z,98635.47
2023-04-22T08:26:37.512Z,98634.00
2023-04-22T08:29:04.710Z,98630.16
2023-04-22T08:31:32.033Z,98636.47
2023-04-22T08:33:58.893Z,98643.34
2023-04-22T08:36:27.728Z,98629.44
2023-04-22T08:38:57.513Z,98630.03
2023-04-22T08:41:24.740Z,98628.03
2023-04-22T08:43:52.372Z,98626.91
2023-04-22T08:46:24.182Z,98626.94
2023-04-22T08:48:51.120Z,98626.97
2023-04-22T08:51:18.279Z,98627.00
2023-04-22T08:53:45.123Z,98624.13
2023-04-22T08:56:15.520Z,98632.00
2023-04-22T08:58:42.316Z,98627.41
2023-04-22T09:01:09.618Z,98626.75
2023-04-22T09:03:37.419Z,98628.31
2023-04-22T09:06:04.909Z,98618.06
2023-04-22T09:08:32.527Z,98629.84
2023-04-22T09:10:59.784Z,98621.19
2023-04-22T09:13:26.694Z,98617.25
2023-04-22T09:15:53.845Z,98622.19
2023-04-22T09:18:20.872Z,98615.53
2023-04-22T09:20:49.147Z,98620.13
2023-04-22T09:23:16.022Z,98613.63
2023-04-22T09:25:43.064Z,98606.91
2023-04-22T09:28:15.132Z,98615.63
2023-04-22T09:30:42.294Z,98608.97
2023-04-22T09:33:09.550Z,98611.63
2023-04-22T09:35:37.995Z,98608.38
2023-04-22T09:38:07.890Z,98614.88
2023-04-22T09:40:35.697Z,98603.69
2023-04-22T09:43:04.381Z,98603.47
2023-04-22T09:45:42.183Z,98601.03
2023-04-22T09:48:13.138Z,98611.78
2023-04-22T09:50:44.319Z,98599.47
2023-04-22T09:53:13.731Z,98591.50
2023-04-22T09:55:45.776Z,98588.91
2023-04-22T09:58:13.817Z,98585.09
2023-04-22T10:01:01.145Z,98586.88
2023-04-22T10:03:28.014Z,98582.38
2023-04-22T10:05:55.238Z,98589.44
2023-04-22T10:08:21.995Z,98581.66
2023-04-22T10:10:49.079Z,98583.94
2023-04-22T10:13:15.861Z,98575.38
2023-04-22T10:15:52.057Z,98571.50
2023-04-22T10:18:23.327Z,98573.88
2023-04-22T10:20:50.893Z,98568.69
2023-04-22T10:23:21.978Z,98568.78
2023-04-22T10:25:55.215Z,98568.34
2023-04-22T10:28:23.349Z,98559.09
2023-04-22T10:30:50.978Z,98557.19
2023-04-22T10:33:21.042Z,98557.75
2023-04-22T10:36:11.025Z,98561.31
2023-04-22T10:39:03.785Z,98560.66
2023-04-22T10:41:34.848Z,98555.44
2023-04-22T10:44:07.844Z,98547.50
2023-04-22T10:46:37.163Z,98546.13
2023-04-22T10:49:07.834Z,98546.56
2023-04-22T10:52:09.386Z,98538.41
2023-04-22T10:54:39.267Z,98537.25
2023-04-22T10:57:08.105Z,98539.22
2023-04-22T11:00:02.979Z,98541.50
2023-04-22T11:02:30.338Z,98537.91
2023-04-22T11:05:27.035Z,98531.91
2023-04-22T11:07:55.934Z,98538.44
2023-04-22T11:10:55.940Z,98530.88
2023-04-22T11:13:23.132Z,98524.22
2023-04-22T11:15:51.687Z,98531.72
2023-04-22T11:18:23.736Z,98530.91
2023-04-22T11:20:51.081Z,98532.88
2023-04-22T11:23:26.621Z,98524.94
2023-04-22T11:25:56.551Z,98522.81
2023-04-22T11:28:23.834Z,98519.66
2023-04-22T11:30:51.339Z,98517.88
2023-04-22T11:33:19.099Z,98520.84
2023-04-22T11:35:45.991Z,98511.34
2023-04-22T11:38:13.268Z,98508.59
2023-04-22T11:40:44.843Z,98514.53
2023-04-22T11:43:13.600Z,98515.66
2023-04-22T11:45:40.577Z,98514.97
2023-04-22T11:48:09.364Z,98509.72
2023-04-22T11:50:37.897Z,98504.22
2023-04-22T11:53:21.037Z,98507.88
2023-04-22T11:55:52.983Z,98510.63
2023-04-22T11:58:21.047Z,98506.81
2023-04-22T12:00:49.471Z,98501.78
2023-04-22T12:03:21.011Z,98508.75
2023-04-22T12:06:06.441Z,98506.22
2023-04-22T12:08:39.877Z,98503.69
2023-04-22T12:11:07.584Z,98492.13
2023-04-22T12:13:41.965Z,98496.34
2023-04-22T12:16:18.678Z,98496.16
2023-04-22T12:18:55.639Z,98489.81
2023-04-22T12:21:24.679Z,98492.34
2023-04-22T12:23:55.437Z,98481.97
2023-04-22T12:26:26.634Z,98483.47
2023-04-22T12:28:55.110Z,98485.81
2023-04-22T12:31:22.100Z,98483.06
2023-04-22T12:33:49.516Z,98476.69
2023-04-22T12:36:17.670Z,98471.59
2023-04-22T12:38:44.803Z,98480.94
2023-04-22T12:41:11.679Z,98473.72
2023-04-22T12:43:39.509Z,98474.81
2023-04-22T12:46:07.118Z,98470.75
2023-04-22T12:48:34.369Z,98471.38
2023-04-22T12:51:01.193Z,98466.28
2023-04-22T12:53:28.523Z,98469.06
2023-04-22T12:55:55.919Z,98472.88
2023-04-22T12:58:23.474Z,98462.06
2023-04-22T13:00:50.334Z,98464.63
2023-04-22T13:03:17.631Z,98459.09
2023-04-22T13:05:45.772Z,98466.28
2023-04-22T13:08:12.896Z,98466.06
2023-04-22T13:10:39.788Z,98463.72
2023-04-22T13:15:39.021Z,98451.84
2023-04-22T13:18:06.527Z,98451.41
2023-04-22T13:20:33.604Z,98445.91
2023-04-22T13:23:02.224Z,98446.31
2023-04-22T13:25:29.253Z,98451.41
2023-04-22T13:27:56.399Z,98444.59
2023-04-22T13:30:23.250Z,98445.44
2023-04-22T13:32:50.419Z,98444.16
2023-04-22T13:35:18.432Z,98441.19
2023-04-22T13:37:46.417Z,98433.13
2023-04-22T13:40:13.382Z,98435.66
2023-04-22T13:42:40.710Z,98431.88
2023-04-22T13:45:08.269Z,98428.69
2023-04-22T13:47:35.530Z,98422.25
2023-04-22T13:50:02.509Z,98424.41
2023-04-22T13:52:29.634Z,98414.88
2023-04-22T13:54:56.533Z,98423.97
2023-04-22T13:57:23.749Z,98425.50
2023-04-22T13:59:50.805Z,98419.97
2023-04-22T14:02:18.119Z,98421.66
2023-04-22T14:04:45.163Z,98417.63
2023-04-22T14:07:12.798Z,98423.53
2023-04-22T14:09:39.912Z,98410.38
2023-04-22T14:12:07.757Z,98411.84
2023-04-22T14:14:34.857Z,98410.56
2023-04-22T14:17:02.238Z,98407.56
2023-04-22T14:19:30.578Z,98403.97
2023-04-22T14:21:57.968Z,98406.34
2023-04-22T14:24:24.971Z,98406.13
2023-04-22T14:26:52.836Z,98411.44
2023-04-22T14:29:19.680Z,98401.47
2023-04-22T14:31:46.843Z,98402.50
2023-04-22T14:34:13.610Z,98403.81
2023-04-22T14:36:40.762Z,98408.22
2023-04-22T14:39:07.687Z,98406.56
2023-04-22T14:41:34.979Z,98405.69
2023-04-22T14:44:01.857Z,98410.16
2023-04-22T14:46:30.521Z,98407.41
2023-04-22T14:48:57.401Z,98397.19
2023-04-22T14:51:24.590Z,98391.47
2023-04-22T14:53:51.658Z,98395.31
2023-04-22T14:56:18.877Z,98390.63
2023-04-22T14:58:45.828Z,98390.41
2023-04-22T15:01:12.940Z,98390.81
2023-04-22T15:03:39.961Z,98388.28
2023-04-22T15:06:07.226Z,98387.88
2023-04-22T15:08:34.021Z,98382.75
2023-04-22T15:11:01.165Z,98381.75
2023-04-22T15:13:27.944Z,98380.00
2023-04-22T15:15:55.050Z,98380.63
2023-04-22T15:18:21.879Z,98385.31
2023-04-22T15:20:49.095Z,98377.88
2023-04-22T15:23:16.060Z,98378.94
2023-04-22T15:25:43.185Z,98376.19
2023-04-22T15:28:10.057Z,98371.34
2023-04-22T15:30:37.228Z,98376.00
2023-04-22T15:33:05.016Z,98374.72
2023-04-22T15:35:32.178Z,98378.09
2023-04-22T15:37:59.102Z,98380.44
2023-04-22T15:40:26.259Z,98374.94
2023-04-22T15:42:53.089Z,98375.16
2023-04-22T15:45:20.372Z,98379.22
2023-04-22T15:47:47.251Z,98373.03
2023-04-22T15:50:14.423Z,98371.38
2023-04-22T15:52:41.282Z,98372.88
2023-04-22T15:55:09.423Z,98368.44
2023-04-22T15:57:36.384Z,98366.09
2023-04-22T16:00:11.840Z,98370.75
2023-04-22T16:02:39.808Z,98367.34
2023-04-22T16:05:07.311Z,98367.59
2023-04-22T16:07:34.142Z,98365.06
2023-04-22T16:10:01.464Z,98367.19
2023-04-22T16:12:28.418Z,98368.47
2023-04-22T16:14:55.600Z,98371.88
2023-04-22T16:17:22.568Z,98374.03
2023-04-22T16:19:49.696Z,98368.50
2023-04-22T16:22:16.489Z,98365.34
2023-04-22T16:24:44.384Z,98367.47
2023-04-22T16:27:16.390Z,98361.75
2023-04-22T16:29:44.185Z,98362.22
2023-04-22T16:32:11.462Z,98364.34
2023-04-22T16:34:38.846Z,98360.13
2023-04-22T16:37:06.061Z,98357.78
2023-04-22T16:39:33.421Z,98357.19
2023-04-22T16:42:00.283Z,98355.69
2023-04-22T16:44:27.408Z,98364.38
2023-04-22T16:46:54.193Z,98353.81
2023-04-22T16:49:21.319Z,98357.00
2023-04-22T16:51:48.509Z,98361.25
2023-04-22T16:54:15.610Z,98352.56
2023-04-22T16:56:42.399Z,98351.13
2023-04-22T16:59:09.534Z,98353.41
2023-04-22T17:01:36.381Z,98354.69
2023-04-22T17:04:03.662Z,98350.66
2023-04-22T17:06:31.280Z,98349.22
2023-04-22T17:08:59.905Z,98355.16
2023-04-22T17:11:26.810Z,98342.00
2023-04-22T17:13:54.021Z,98347.94
2023-04-22T17:16:21.125Z,98344.16
2023-04-22T17:18:48.388Z,98346.28
2023-04-22T17:21:15.224Z,98339.72
2023-04-22T17:23:42.334Z,98346.50
2023-04-22T17:26:09.165Z,98339.97
2023-04-22T17:28:36.229Z,98345.91
2023-04-22T17:31:04.098Z,98346.53
2023-04-22T17:33:31.355Z,98340.00
2023-04-22T17:35:58.219Z,98347.59
2023-04-22T17:38:25.377Z,98347.38
2023-04-22T17:40:52.148Z,98344.41
2023-04-22T17:43:19.262Z,98343.34
2023-04-22T17:45:46.038Z,98342.06
2023-04-22T17:48:13.148Z,98348.44
2023-04-22T17:50:39.926Z,98346.50
2023-04-22T17:53:07.063Z,98341.22
2023-04-22T17:55:35.355Z,98348.81
2023-04-22T17:58:03.147Z,98353.91
2023-04-22T18:00:30.501Z,98350.72
2023-04-22T18:02:57.871Z,98349.63
2023-04-22T18:05:24.836Z,98354.28
2023-04-22T18:07:52.590Z,98362.69
2023-04-22T18:10:19.450Z,98358.66
2023-04-22T18:12:46.663Z,98362.84
2023-04-22T18:15:13.451Z,98365.19
2023-04-22T18:17:40.584Z,98358.38
2023-04-22T18:20:17.584Z,98367.44
2023-04-22T18:22:49.426Z,98357.66
2023-04-22T18:25:16.578Z,98369.50
2023-04-22T18:27:44.113Z,98374.31
2023-04-22T18:30:11.193Z,98368.78
2023-04-22T18:32:38.510Z,98374.25
2023-04-22T18:35:06.070Z,98380.97
2023-04-22T18:37:34.584Z,98377.50
2023-04-22T18:40:02.113Z,98377.47
2023-04-22T18:42:29.244Z,98383.34
2023-04-22T18:44:56.040Z,98383.09
2023-04-22T18:47:23.338Z,98386.03
2023-04-22T18:49:50.157Z,98384.97
2023-04-22T18:52:17.552Z,98378.38
2023-04-22T18:54:44.430Z,98380.59
2023-04-22T18:57:11.587Z,98385.00
2023-04-22T18:59:38.587Z,98383.69
2023-04-22T19:02:05.780Z,98380.88
2023-04-22T19:04:32.847Z,98380.44
2023-04-22T19:07:00.232Z,98388.22
2023-04-22T19:09:27.059Z,98378.19
2023-04-22T19:11:54.141Z,98379.38
2023-04-22T19:14:20.931Z,98378.28
2023-04-22T19:16:48.026Z,98376.72
2023-04-22T19:19:14.843Z,98378.53
2023-04-22T19:21:41.939Z,98379.50
2023-04-22T19:24:09.770Z,98373.19
2023-04-22T19:26:36.886Z,98370.13
2023-04-22T19:29:03.644Z,98372.41
2023-04-22T19:31:30.950Z,98375.91
2023-04-22T19:33:58.015Z,98376.94
2023-04-22T19:36:25.678Z,98379.59
2023-04-22T19:38:52.422Z,98375.25
2023-04-22T19:41:19.473Z,98372.44
2023-04-22T19:43:46.273Z,98375.91
2023-04-22T19:46:13.411Z,98375.66
2023-04-22T19:48:40.768Z,98372.91
2023-04-22T19:51:08.001Z,98375.75
2023-04-22T19:53:34.909Z,98376.91
2023-04-22T19:56:03.007Z,98372.66
2023-04-22T19:58:29.934Z,98367.91
2023-04-22T20:00:57.478Z,98368.03
2023-04-22T20:03:24.792Z,98364.63
2023-04-22T20:05:52.079Z,98369.81
2023-04-22T20:08:19.654Z,98361.41
2023-04-22T20:10:49.247Z,98360.22
2023-04-22T20:13:16.618Z,98371.88
2023-04-22T20:15:44.490Z,98364.38
2023-04-22T20:18:11.481Z,98370.03
2023-04-22T20:20:40.144Z,98361.44
2023-04-22T20:23:09.815Z,98361.16
2023-04-22T20:25:39.674Z,98362.75
2023-04-22T20:28:07.044Z,98365.66
2023-04-22T20:30:34.425Z,98366.03
2023-04-22T20:33:01.441Z,98367.34
2023-04-22T20:35:28.914Z,98360.06
2023-04-22T20:37:58.033Z,98364.84
2023-04-22T20:40:25.527Z,98362.66
2023-04-22T20:42:52.282Z,98364.25
2023-04-22T20:45:20.374Z,98364.16
2023-04-22T20:47:48.376Z,98368.56
2023-04-22T20:50:16.153Z,98360.25
2023-04-22T20:52:43.396Z,98360.16
2023-04-22T20:55:10.461Z,98367.66
2023-04-22T20:57:37.712Z,98369.69
2023-04-22T21:00:07.202Z,98359.34
2023-04-22T21:02:34.135Z,98358.88
2023-04-22T21:05:02.407Z,98365.06
2023-04-22T21:07:30.820Z,98362.88
2023-04-22T21:09:58.209Z,98365.66
2023-04-22T21:12:25.541Z,98369.09
2023-04-22T21:14:52.983Z,98366.19
2023-04-22T21:17:21.442Z,98364.53
2023-04-22T21:19:49.830Z,98367.09
2023-04-22T21:22:23.495Z,98363.38
2023-04-22T21:24:53.924Z,98356.41
2023-04-22T21:27:21.689Z,98363.41
2023-04-22T21:29:49.489Z,98374.19
2023-04-22T21:32:16.743Z,98370.94
2023-04-22T21:34:44.635Z,98373.50
2023-04-22T21:37:11.908Z,98377.28
2023-04-22T21:39:39.926Z,98368.78
2023-04-22T21:42:08.660Z,98374.06
2023-04-22T21:44:36.764Z,98379.34
2023-04-22T21:47:04.074Z,98377.47
2023-04-22T21:49:31.300Z,98379.53
2023-04-22T21:51:58.357Z,98379.22
2023-04-22T21:54:25.463Z,98383.97
2023-04-22T21:56:52.276Z,98377.53
2023-04-22T21:59:19.463Z,98379.41
2023-04-22T22:01:46.396Z,98380.75
2023-04-22T22:04:15.940Z,98379.06
2023-04-22T22:06:44.304Z,98384.53
2023-04-22T22:09:12.163Z,98389.13
2023-04-22T22:11:38.932Z,98379.94
2023-04-22T22:14:06.049Z,98386.91
2023-04-22T22:16:33.482Z,98379.59
2023-04-22T22:19:02.757Z,98381.81
2023-04-22T22:21:29.769Z,98381.09
2023-04-22T22:23:57.829Z,98380.91
2023-04-22T22:26:24.816Z,98377.34
2023-04-22T22:28:51.933Z,98378.34
2023-04-22T22:31:18.894Z,98382.09
2023-04-22T22:33:46.138Z,98378.34
2023-04-22T22:36:12.955Z,98378.88
2023-04-22T22:38:40.020Z,98377.66
2023-04-22T22:41:06.808Z,98370.84
2023-04-22T22:43:33.874Z,98377.63
2023-04-22T22:46:00.752Z,98374.56
2023-04-22T22:48:27.851Z,98381.88
2023-04-22T22:50:54.619Z,98371.66
2023-04-22T22:53:22.191Z,98377.97
2023-04-22T22:55:49.011Z,98377.41
2023-04-22T22:58:16.211Z,98374.84
2023-04-22T23:00:42.971Z,98377.03
2023-04-22T23:03:10.179Z,98369.72
2023-04-22T23:05:37.116Z,98371.94
2023-04-22T23:08:04.225Z,98377.22
2023-04-22T23:10:31.507Z,98379.59
2023-04-22T23:13:00.096Z,98372.47
2023-04-22T23:15:26.897Z,98371.94
2023-04-22T23:17:54.104Z,98373.75
2023-04-22T23:20:22.325Z,98381.59
2023-04-22T23:22:51.179Z,98367.81
2023-04-22T23:25:18.898Z,98372.41
2023-04-22T23:27:46.797Z,98371.72
2023-04-22T23:30:14.109Z,98366.28
2023-04-22T23:32:41.313Z,98357.59
2023-04-22T23:35:09.108Z,98366.22
2023-04-22T23:37:40.593Z,98365.69
2023-04-22T23:40:08.868Z,98363.78
2023-04-22T23:42:36.650Z,98363.78
2023-04-22T23:45:04.406Z,98368.22
2023-04-22T23:47:31.984Z,98366.44
2023-04-22T23:49:59.194Z,98374.28
2023-04-22T23:52:26.869Z,98376.31
2023-04-22T23:54:55.136Z,98377.13
2023-04-22T23:57:22.548Z,98369.44
2023-04-22T23:59:49.586Z,98362.47
